SUAA    
 201900Z 28010G20KT 9999 FEW026 16/01 Q1020    
 SUCA    
 201900Z 30010KT 9999 FEW026 18/M00 Q1020    
 SUDU    
 201300Z 28010KT CAVOK 11/02 Q1025     
 SULS    
 201900Z 26019KT 9999 FEW030 16/04 Q1020    
 SUMU    
 201900Z 28015KT CAVOK 17/M02 Q1020 TEMPO 25015G25   
 SUSO    
 201900Z 00000KT CAVOK 18/00 Q1022     
 SABE    
 201800Z 24008KT 200V280 CAVOK 20/M06 Q1021 NOSIG   
 SACO    
 201800Z 07010KT 010V100 CAVOK 20/M04 Q1021 NOSIG   
 SADF    
 201800Z 23010KT 200V270 CAVOK 20/M02 Q1021    
 SAEZ    
 201800Z 27010KT CAVOK 20/M01 Q1021 NOSIG    
 SAZB    
 090420Z 18004KT 8000 RA BKN030 OVC040 12/10 Q1016  
 SAZM    
 020100Z 27003KT CAVOK 02/00 Q1017     
 SBPA    
 201800Z 29006KT 230V350 CAVOK 17/06 Q1021    
 SGAS    
 201900Z 20015KT CAVOK 24/01 Q1018     
 SGES    
 201900Z 18011KT CAVOK 25/08 Q1014     
 SCCI    
 201800Z 28013KT 9999 FEW028 BKN200 11/02 Q1018 NOSIG  
 SCRM    
 201800Z 28008KT 9999 BKN010 M05/M06 Q1003 NOSIG